Time;durP1;ratioP1;P1;durP2;ratioP2;P2;SDS_P1;SDS_P2;PMS_P1;PMS_P2;Temp;Humidity;BMP_temperature;BMP_pressure;BME280_temperature;BME280_humidity;BME280_pressure;Samples;Min_cycle;Max_cycle;Signal;HPM_P1;HPM_P2
2023/04/01 00:02:11;;;;;;;0.93;0.43;;;9.10;99.90;;;;;;4964215;28;20026;-71
2023/04/01 00:04:40;;;;;;;1.67;0.45;;;9.10;99.90;;;;;;4963110;28;20054;-71
2023/04/01 00:07:06;;;;;;;2.65;0.40;;;9.10;99.90;;;;;;4967432;28;20378;-72
2023/04/01 00:09:31;;;;;;;2.03;0.40;;;9.00;99.90;;;;;;4967478;28;20078;-71
2023/04/01 00:12:00;;;;;;;0.73;0.30;;;9.00;99.90;;;;;;4978678;28;20487;-71
2023/04/01 00:14:26;;;;;;;1.85;0.30;;;9.00;99.90;;;;;;4962758;28;20324;-72
2023/04/01 00:17:01;;;;;;;1.45;0.40;;;9.00;99.90;;;;;;4968339;28;20423;-70
2023/04/01 00:19:27;;;;;;;2.40;0.30;;;9.00;99.90;;;;;;4967257;28;20395;-71
2023/04/01 00:21:53;;;;;;;2.00;0.40;;;9.00;99.90;;;;;;4963280;28;20035;-71
2023/04/01 00:24:21;;;;;;;0.82;0.40;;;8.90;99.90;;;;;;4963627;28;20125;-71
2023/04/01 00:26:50;;;;;;;2.00;0.30;;;8.90;99.90;;;;;;4967448;28;20023;-71
2023/04/01 00:29:16;;;;;;;2.72;0.75;;;8.90;99.90;;;;;;4965014;28;20094;-70
2023/04/01 00:31:41;;;;;;;1.52;0.32;;;8.90;99.90;;;;;;4964935;28;20770;-71
2023/04/01 00:34:10;;;;;;;1.30;0.20;;;8.90;99.90;;;;;;4962366;28;20038;-73
2023/04/01 00:36:41;;;;;;;1.65;0.30;;;9.00;99.90;;;;;;4962154;28;20476;-72
2023/04/01 00:39:07;;;;;;;1.55;0.22;;;9.00;99.90;;;;;;4969202;28;20113;-72
2023/04/01 00:41:32;;;;;;;2.28;0.50;;;9.00;99.90;;;;;;4965179;28;20082;-70
2023/04/01 00:44:20;;;;;;;1.27;0.50;;;9.00;99.90;;;;;;4966533;28;20306;-71
2023/04/01 00:46:46;;;;;;;0.82;0.32;;;9.00;99.90;;;;;;4961945;28;20035;-73
2023/04/01 00:49:13;;;;;;;2.95;0.50;;;9.00;99.90;;;;;;4965253;28;20085;-70
2023/04/01 00:51:41;;;;;;;2.03;0.40;;;9.00;99.90;;;;;;4959884;28;20526;-70
2023/04/01 00:54:09;;;;;;;1.80;0.30;;;9.00;99.90;;;;;;4967549;28;20019;-72
2023/04/01 00:56:44;;;;;;;0.90;0.30;;;8.90;99.90;;;;;;4963654;28;20034;-72
2023/04/01 00:59:24;;;;;;;2.00;0.40;;;8.90;99.90;;;;;;4964623;28;20117;-72
2023/04/01 01:01:50;;;;;;;2.22;0.32;;;8.90;99.90;;;;;;4969007;28;20066;-72
2023/04/01 01:04:35;;;;;;;3.00;0.40;;;8.90;99.90;;;;;;4968154;28;20031;-70
2023/04/01 01:07:35;;;;;;;0.47;0.20;;;8.80;99.90;;;;;;4965867;28;20113;-73
2023/04/01 01:10:10;;;;;;;1.52;0.28;;;8.80;99.90;;;;;;4965815;28;20023;-72
2023/04/01 01:13:07;;;;;;;0.82;0.20;;;8.80;99.90;;;;;;4969548;28;20533;-72
2023/04/01 01:15:56;;;;;;;1.58;0.40;;;8.80;99.90;;;;;;4950086;28;20043;-73
2023/04/01 01:18:58;;;;;;;2.58;0.50;;;8.80;99.90;;;;;;4966031;28;20038;-73
2023/04/01 01:22:01;;;;;;;2.40;0.40;;;8.70;99.90;;;;;;4966106;28;20082;-73
2023/04/01 01:24:42;;;;;;;2.55;0.50;;;8.70;99.90;;;;;;4964324;28;20050;-73
2023/04/01 01:27:17;;;;;;;2.55;0.30;;;8.60;99.90;;;;;;4964718;28;20054;-71
2023/04/01 01:30:19;;;;;;;0.57;0.30;;;8.70;99.90;;;;;;4958101;28;20034;-72
2023/04/01 01:33:03;;;;;;;1.30;0.40;;;8.60;99.90;;;;;;4964077;28;20019;-72
2023/04/01 01:35:36;;;;;;;0.90;0.30;;;8.60;99.90;;;;;;4964544;28;20081;-71
2023/04/01 01:38:07;;;;;;;0.90;0.20;;;8.60;99.90;;;;;;4981279;28;20042;-71
2023/04/01 01:40:35;;;;;;;1.83;0.43;;;8.60;99.90;;;;;;4963798;28;20388;-71
2023/04/01 01:43:08;;;;;;;0.20;0.15;;;8.60;99.90;;;;;;4965966;28;20110;-70
2023/04/01 01:45:42;;;;;;;0.40;0.20;;;8.60;99.90;;;;;;4964329;28;20027;-73
2023/04/01 01:48:11;;;;;;;0.22;0.20;;;8.60;99.90;;;;;;4964990;28;20073;-73
2023/04/01 01:50:37;;;;;;;0.30;0.13;;;8.60;99.90;;;;;;4965585;28;20031;-71
2023/04/01 01:53:06;;;;;;;0.32;0.20;;;8.60;99.90;;;;;;4967944;28;20019;-71
2023/04/01 01:55:37;;;;;;;1.63;0.30;;;8.60;99.90;;;;;;4964572;28;20057;-73
2023/04/01 01:58:11;;;;;;;0.40;0.15;;;8.60;99.90;;;;;;4963938;28;20443;-73
2023/04/01 02:00:39;;;;;;;0.88;0.20;;;8.60;99.90;;;;;;4965841;28;20094;-73
2023/04/01 02:03:09;;;;;;;0.45;0.13;;;8.60;99.90;;;;;;4969325;28;20504;-73
2023/04/01 02:05:35;;;;;;;0.22;0.13;;;8.70;99.90;;;;;;4964562;28;20389;-73
2023/04/01 02:08:25;;;;;;;1.42;0.10;;;8.60;99.90;;;;;;4964623;28;20033;-72
2023/04/01 02:11:00;;;;;;;0.60;0.10;;;8.70;99.90;;;;;;4964160;28;20111;-71
2023/04/01 02:13:47;;;;;;;2.92;0.20;;;8.70;99.90;;;;;;4963722;28;20039;-72
2023/04/01 02:16:22;;;;;;;0.38;0.20;;;8.70;99.90;;;;;;4966641;28;20062;-72
2023/04/01 02:18:53;;;;;;;0.20;0.10;;;8.70;99.90;;;;;;4966377;28;20082;-72
2023/04/01 02:21:21;;;;;;;1.98;0.60;;;8.70;99.90;;;;;;4965929;28;20027;-72
2023/04/01 02:23:48;;;;;;;0.17;0.10;;;8.60;99.90;;;;;;4960597;28;20065;-72
2023/04/01 02:26:14;;;;;;;0.60;0.20;;;8.60;99.90;;;;;;4963251;28;20019;-72
2023/04/01 02:28:42;;;;;;;1.08;0.20;;;8.70;99.90;;;;;;4963966;28;20027;-72
2023/04/01 02:31:17;;;;;;;2.88;0.30;;;8.60;99.90;;;;;;4964483;28;20041;-72
2023/04/01 02:33:49;;;;;;;1.38;0.20;;;8.60;99.90;;;;;;4964693;28;20181;-72
2023/04/01 02:36:16;;;;;;;2.13;0.30;;;8.60;99.90;;;;;;4964532;28;20242;-72
2023/04/01 02:38:49;;;;;;;0.68;0.20;;;8.60;99.90;;;;;;4976768;28;20035;-72
2023/04/01 02:41:18;;;;;;;0.70;0.20;;;8.50;99.90;;;;;;4963014;28;20042;-73
2023/04/01 02:43:44;;;;;;;0.57;0.30;;;8.50;99.90;;;;;;4963408;28;20043;-72
2023/04/01 02:46:09;;;;;;;0.10;0.10;;;8.50;99.90;;;;;;4966064;28;20457;-72
2023/04/01 02:48:35;;;;;;;1.75;0.30;;;8.40;99.90;;;;;;4967738;28;20090;-71
2023/04/01 02:51:03;;;;;;;0.32;0.10;;;8.40;99.90;;;;;;4978876;28;20019;-71
2023/04/01 02:53:32;;;;;;;2.35;0.30;;;8.40;99.90;;;;;;4965203;28;20054;-71
2023/04/01 02:56:04;;;;;;;0.47;0.22;;;8.30;99.90;;;;;;4961742;28;20700;-71
2023/04/01 02:58:32;;;;;;;1.25;0.30;;;8.30;99.90;;;;;;4962528;28;20027;-71
2023/04/01 03:00:58;;;;;;;0.25;0.10;;;8.30;99.90;;;;;;4959187;28;20092;-71
2023/04/01 03:03:24;;;;;;;0.45;0.28;;;8.20;99.90;;;;;;4966213;28;20031;-71
2023/04/01 03:05:49;;;;;;;0.45;0.05;;;8.10;99.90;;;;;;4964472;28;20026;-71
2023/04/01 03:08:15;;;;;;;0.90;0.20;;;8.10;99.90;;;;;;4965084;28;20030;-71
2023/04/01 03:10:41;;;;;;;1.17;0.25;;;8.10;99.90;;;;;;4963581;28;20026;-71
2023/04/01 03:13:12;;;;;;;0.85;0.20;;;8.10;99.90;;;;;;4963843;28;20317;-71
2023/04/01 03:15:38;;;;;;;0.10;0.10;;;8.10;99.90;;;;;;4962551;28;20092;-71
2023/04/01 03:18:06;;;;;;;1.13;0.20;;;8.00;99.90;;;;;;4966769;28;20031;-71
2023/04/01 03:20:32;;;;;;;0.73;0.25;;;7.90;99.90;;;;;;4964120;28;20019;-71
2023/04/01 03:22:57;;;;;;;0.30;0.10;;;7.90;99.90;;;;;;4962156;28;20038;-72
2023/04/01 03:25:23;;;;;;;0.20;0.08;;;7.80;99.90;;;;;;4963654;28;20117;-71
2023/04/01 03:27:49;;;;;;;0.40;0.20;;;7.80;99.90;;;;;;4964431;28;20102;-72
2023/04/01 03:30:15;;;;;;;0.30;0.10;;;7.70;99.90;;;;;;4961449;28;20113;-72
2023/04/01 03:32:43;;;;;;;0.98;0.10;;;7.70;99.90;;;;;;4962301;28;20031;-71
2023/04/01 03:35:10;;;;;;;0.25;0.10;;;7.70;99.90;;;;;;4960352;28;20404;-71
2023/04/01 03:37:41;;;;;;;0.10;0.10;;;7.70;99.90;;;;;;4961751;28;20141;-72
2023/04/01 03:40:08;;;;;;;1.13;0.10;;;7.60;99.90;;;;;;4962285;28;20026;-71
2023/04/01 03:42:36;;;;;;;1.48;0.10;;;7.60;99.90;;;;;;4969789;28;20022;-72
2023/04/01 03:45:03;;;;;;;0.30;0.30;;;7.60;99.90;;;;;;4966263;28;20027;-71
2023/04/01 03:47:32;;;;;;;0.10;0.10;;;7.60;99.90;;;;;;4971064;28;20023;-71
2023/04/01 03:50:01;;;;;;;0.10;0.10;;;7.60;99.90;;;;;;4966035;28;20019;-70
2023/04/01 03:52:27;;;;;;;0.10;0.10;;;7.50;99.90;;;;;;4966302;28;20023;-70
2023/04/01 03:54:53;;;;;;;0.10;0.10;;;7.60;99.90;;;;;;4968097;28;20101;-70
2023/04/01 03:57:18;;;;;;;0.20;0.10;;;7.60;99.90;;;;;;4966431;28;20177;-72
2023/04/01 03:59:44;;;;;;;0.15;0.10;;;7.60;99.90;;;;;;4962888;28;20035;-72
2023/04/01 04:02:09;;;;;;;0.40;0.15;;;7.50;99.90;;;;;;4968719;28;20050;-71
2023/04/01 04:04:38;;;;;;;0.75;0.20;;;7.50;99.90;;;;;;4969865;28;20031;-72
2023/04/01 04:07:07;;;;;;;0.68;0.20;;;7.50;99.90;;;;;;4965648;28;20054;-72
2023/04/01 04:09:33;;;;;;;1.92;0.30;;;7.60;99.90;;;;;;4968812;28;20065;-75
2023/04/01 04:11:59;;;;;;;2.25;0.50;;;7.60;99.90;;;;;;4966633;28;20058;-75
2023/04/01 04:14:24;;;;;;;0.75;0.20;;;7.60;99.90;;;;;;4969142;28;20043;-75
2023/04/01 04:16:50;;;;;;;2.00;0.20;;;7.60;99.90;;;;;;4967529;28;20041;-75
2023/04/01 04:19:15;;;;;;;1.30;0.20;;;7.60;99.90;;;;;;4968235;28;20027;-75
2023/04/01 04:21:42;;;;;;;0.60;0.25;;;7.60;99.90;;;;;;4972315;28;20031;-75
2023/04/01 04:24:08;;;;;;;1.58;0.30;;;7.70;99.90;;;;;;4963892;28;20035;-75
2023/04/01 04:26:34;;;;;;;1.65;0.40;;;7.70;99.90;;;;;;4964160;28;20043;-74
2023/04/01 04:29:00;;;;;;;0.93;0.20;;;7.70;99.90;;;;;;4966583;28;20598;-74
2023/04/01 04:31:34;;;;;;;4.63;0.65;;;7.70;99.90;;;;;;4965667;28;20055;-74
2023/04/01 04:34:01;;;;;;;1.95;0.30;;;7.70;99.90;;;;;;4968618;28;20025;-74
2023/04/01 04:36:35;;;;;;;0.93;0.25;;;7.70;99.90;;;;;;4969005;28;20437;-74
2023/04/01 04:39:04;;;;;;;1.27;0.73;;;7.70;99.90;;;;;;4967618;28;20034;-74
2023/04/01 04:41:39;;;;;;;1.45;0.35;;;7.70;99.90;;;;;;4969080;28;20110;-74
2023/04/01 04:44:05;;;;;;;2.13;0.40;;;7.70;99.90;;;;;;4967742;28;20038;-74
2023/04/01 04:46:33;;;;;;;2.83;0.50;;;7.70;99.90;;;;;;4968199;28;20031;-74
2023/04/01 04:48:59;;;;;;;1.83;0.38;;;7.70;99.90;;;;;;4963904;28;20015;-74
2023/04/01 04:51:35;;;;;;;1.90;0.30;;;7.70;99.90;;;;;;4966627;28;20027;-74
2023/04/01 04:54:21;;;;;;;0.75;0.20;;;7.70;99.90;;;;;;4966773;28;20027;-74
2023/04/01 04:56:47;;;;;;;1.95;0.30;;;7.70;99.90;;;;;;4982321;28;20415;-74
2023/04/01 04:59:15;;;;;;;1.73;0.20;;;7.70;99.90;;;;;;4967161;28;20035;-74
2023/04/01 05:01:41;;;;;;;1.95;0.22;;;7.80;99.90;;;;;;4969071;28;20031;-74
2023/04/01 05:04:09;;;;;;;1.02;0.30;;;7.70;99.90;;;;;;4967011;28;20419;-74
2023/04/01 05:06:38;;;;;;;3.55;0.20;;;7.80;99.90;;;;;;4970566;28;20399;-74
2023/04/01 05:09:16;;;;;;;0.40;0.20;;;7.80;99.90;;;;;;4969169;28;20054;-74
2023/04/01 05:11:45;;;;;;;1.40;0.20;;;7.80;99.90;;;;;;4970764;28;20027;-74
2023/04/01 05:14:15;;;;;;;0.57;0.20;;;7.80;99.90;;;;;;4963823;28;20034;-75
2023/04/01 05:16:41;;;;;;;1.45;0.20;;;7.80;99.90;;;;;;4970014;28;20085;-75
2023/04/01 05:19:06;;;;;;;0.43;0.17;;;7.90;99.90;;;;;;4971224;28;20030;-75
2023/04/01 05:21:32;;;;;;;0.60;0.20;;;7.90;99.90;;;;;;4967213;28;20026;-75
2023/04/01 05:24:01;;;;;;;0.70;0.20;;;7.90;99.90;;;;;;4970462;28;20091;-74
2023/04/01 05:26:38;;;;;;;0.73;0.20;;;8.00;99.90;;;;;;4969426;28;20019;-74
2023/04/01 05:29:10;;;;;;;0.50;0.20;;;8.00;99.90;;;;;;4966600;28;20056;-73
2023/04/01 05:31:42;;;;;;;0.90;0.20;;;8.00;99.90;;;;;;4969306;28;20050;-73
2023/04/01 05:34:10;;;;;;;0.75;0.30;;;8.10;99.90;;;;;;4954486;28;20030;-73
2023/04/01 05:36:45;;;;;;;1.17;0.17;;;8.10;99.90;;;;;;4965350;28;20074;-76
2023/04/01 05:39:10;;;;;;;0.25;0.10;;;8.10;99.90;;;;;;4969920;28;20106;-73
2023/04/01 05:41:40;;;;;;;1.02;0.10;;;8.20;99.90;;;;;;4962271;28;20495;-75
2023/04/01 05:44:12;;;;;;;0.68;0.28;;;8.20;99.90;;;;;;4958639;28;20058;-75
2023/04/01 05:46:41;;;;;;;0.20;0.20;;;8.20;99.90;;;;;;4966910;28;20022;-76
2023/04/01 05:49:06;;;;;;;1.38;0.17;;;8.30;99.90;;;;;;4970505;28;20066;-76
2023/04/01 05:51:32;;;;;;;1.17;0.30;;;8.30;99.90;;;;;;4965851;28;20054;-76
2023/04/01 05:53:57;;;;;;;1.23;0.20;;;8.40;99.90;;;;;;4969179;28;20510;-76
2023/04/01 05:56:29;;;;;;;3.88;0.30;;;8.40;99.90;;;;;;4969649;28;20034;-75
2023/04/01 05:58:58;;;;;;;1.13;0.20;;;8.50;99.90;;;;;;4984541;28;20041;-74
2023/04/01 06:01:24;;;;;;;1.20;0.20;;;8.50;99.90;;;;;;4968660;28;20097;-76
2023/04/01 06:03:55;;;;;;;1.08;0.30;;;8.60;99.90;;;;;;4963383;28;20031;-76
2023/04/01 06:06:28;;;;;;;0.50;0.30;;;8.60;99.90;;;;;;4972687;28;20110;-77
2023/04/01 06:08:57;;;;;;;2.92;0.20;;;8.70;99.90;;;;;;4973525;28;20019;-76
2023/04/01 06:11:51;;;;;;;2.63;0.38;;;8.70;99.90;;;;;;4967644;28;20093;-76
2023/04/01 06:14:39;;;;;;;;;;;8.70;99.90;;;;;;4967164;28;20118;-75
2023/04/01 06:17:22;;;;;;;0.77;0.40;;;8.80;99.90;;;;;;4970634;28;19913;-75
2023/04/01 06:19:53;;;;;;;3.20;0.68;;;8.80;99.90;;;;;;4983044;28;20081;-77
2023/04/01 06:22:38;;;;;;;1.65;0.30;;;8.90;99.90;;;;;;4970309;28;20054;-76
2023/04/01 06:25:42;;;;;;;3.42;0.30;;;9.00;99.90;;;;;;4966353;28;20038;-75
2023/04/01 06:28:33;;;;;;;1.67;0.50;;;9.00;99.90;;;;;;4960409;28;20041;-75
2023/04/01 06:31:21;;;;;;;2.83;0.50;;;9.00;99.90;;;;;;4968306;28;20388;-75
2023/04/01 06:34:08;;;;;;;1.60;0.30;;;9.10;99.90;;;;;;4969691;28;20029;-75
2023/04/01 06:36:43;;;;;;;1.38;0.25;;;9.10;99.90;;;;;;4963262;28;20436;-76
2023/04/01 06:39:21;;;;;;;0.65;0.13;;;9.20;99.90;;;;;;4969317;28;20053;-77
2023/04/01 06:42:17;;;;;;;1.95;0.40;;;9.20;99.90;;;;;;4962674;28;20034;-77
2023/04/01 06:45:04;;;;;;;1.15;0.20;;;9.30;99.90;;;;;;4962525;28;20106;-77
2023/04/01 06:48:01;;;;;;;0.82;0.45;;;9.30;99.90;;;;;;4955489;28;20035;-75
2023/04/01 06:50:27;;;;;;;0.90;0.20;;;9.40;99.90;;;;;;4966029;28;20045;-74
2023/04/01 06:52:55;;;;;;;0.35;0.20;;;9.40;99.90;;;;;;4959901;28;20026;-74
2023/04/01 06:55:37;;;;;;;0.17;0.15;;;9.40;99.90;;;;;;4964147;28;20054;-74
2023/04/01 06:58:05;;;;;;;1.02;0.22;;;9.40;99.90;;;;;;4984003;28;20455;-75
2023/04/01 07:00:38;;;;;;;0.98;0.30;;;9.50;99.90;;;;;;4960763;28;20407;-74
2023/04/01 07:03:32;;;;;;;1.40;0.23;;;9.50;99.90;;;;;;4961907;28;20047;-75
2023/04/01 07:06:05;;;;;;;1.20;0.47;;;9.50;99.90;;;;;;4966882;28;20276;-75
2023/04/01 07:08:35;;;;;;;4.15;0.55;;;9.50;99.90;;;;;;4964884;28;20496;-77
2023/04/01 07:11:04;;;;;;;0.52;0.30;;;9.50;99.90;;;;;;4968894;28;20542;-75
2023/04/01 07:13:55;;;;;;;0.70;0.30;;;9.60;99.90;;;;;;4966963;28;20574;-76
2023/04/01 07:16:42;;;;;;;1.13;0.32;;;9.60;99.90;;;;;;4961269;28;20571;-74
2023/04/01 07:19:31;;;;;;;1.48;0.50;;;9.70;99.90;;;;;;4968151;28;20444;-74
2023/04/01 07:22:21;;;;;;;0.70;0.30;;;9.70;99.90;;;;;;4973643;28;20030;-73
2023/04/01 07:24:48;;;;;;;2.80;0.70;;;9.70;99.90;;;;;;4975669;28;20027;-75
2023/04/01 07:27:14;;;;;;;1.80;0.30;;;9.80;99.90;;;;;;4971227;28;20034;-75
2023/04/01 07:29:41;;;;;;;0.50;0.30;;;9.80;99.90;;;;;;4973973;28;20129;-73
2023/04/01 07:32:44;;;;;;;0.90;0.38;;;9.80;99.90;;;;;;4970754;28;20555;-73
2023/04/01 07:35:31;;;;;;;3.10;0.57;;;9.80;99.90;;;;;;4972189;28;20492;-75
2023/04/01 07:38:19;;;;;;;3.03;0.90;;;9.80;99.90;;;;;;4970896;28;20061;-75
2023/04/01 07:41:09;;;;;;;1.80;0.30;;;9.90;99.90;;;;;;4973408;28;20549;-75
2023/04/01 07:43:49;;;;;;;0.95;0.35;;;9.90;99.90;;;;;;4971912;28;20325;-74
2023/04/01 07:46:30;;;;;;;2.60;0.55;;;9.90;99.90;;;;;;4971572;28;20041;-73
2023/04/01 07:49:01;;;;;;;2.03;0.45;;;10.00;99.90;;;;;;4972084;28;20173;-75
2023/04/01 07:51:38;;;;;;;1.33;0.40;;;10.00;99.90;;;;;;4968279;28;20029;-75
2023/04/01 07:54:09;;;;;;;2.70;0.20;;;10.00;99.90;;;;;;4972368;28;20564;-76
2023/04/01 07:56:50;;;;;;;0.98;0.20;;;10.10;99.90;;;;;;4969662;28;20062;-75
2023/04/01 07:59:41;;;;;;;0.60;0.30;;;10.10;99.90;;;;;;4970556;28;20034;-75
2023/04/01 08:02:22;;;;;;;1.67;0.40;;;10.10;99.90;;;;;;4973395;28;20023;-75
2023/04/01 08:05:06;;;;;;;0.55;0.25;;;10.20;99.90;;;;;;4973342;28;20487;-75
2023/04/01 08:07:50;;;;;;;;;;;10.20;99.90;;;;;;4963922;28;20033;-73
2023/04/01 08:10:37;;;;;;;0.45;0.30;;;10.20;99.90;;;;;;4969165;28;19910;-75
2023/04/01 08:13:46;;;;;;;0.95;0.30;;;10.20;99.90;;;;;;4971808;28;20042;-74
2023/04/01 08:16:12;;;;;;;1.63;0.30;;;10.20;99.90;;;;;;4968608;28;20035;-74
2023/04/01 08:19:03;;;;;;;0.20;0.20;;;10.20;99.90;;;;;;4973016;28;20033;-75
2023/04/01 08:21:52;;;;;;;0.55;0.30;;;10.20;99.90;;;;;;4972628;28;20022;-75
2023/04/01 08:24:47;;;;;;;0.77;0.32;;;10.20;99.90;;;;;;4971117;28;20026;-75
2023/04/01 08:27:31;;;;;;;1.23;0.20;;;10.20;99.90;;;;;;4951259;28;20043;-75
2023/04/01 08:30:04;;;;;;;1.08;0.45;;;10.20;99.90;;;;;;4970370;28;20027;-76
2023/04/01 08:32:44;;;;;;;1.88;0.30;;;10.20;99.90;;;;;;4966212;28;20027;-75
2023/04/01 08:35:33;;;;;;;0.55;0.20;;;10.20;99.90;;;;;;4973624;28;20550;-75
2023/04/01 08:38:39;;;;;;;0.63;0.40;;;10.30;99.90;;;;;;4972941;28;20027;-74
2023/04/01 08:41:20;;;;;;;0.95;0.30;;;10.30;99.90;;;;;;4967014;28;20066;-74
2023/04/01 08:44:07;;;;;;;0.63;0.20;;;10.30;99.90;;;;;;4972210;28;20035;-74
2023/04/01 08:47:04;;;;;;;0.60;0.28;;;10.30;99.90;;;;;;4971070;28;20093;-72
2023/04/01 08:50:10;;;;;;;0.43;0.22;;;10.40;99.90;;;;;;4966982;28;20067;-74
2023/04/01 08:52:47;;;;;;;1.23;0.38;;;10.40;99.90;;;;;;4966896;28;20035;-74
2023/04/01 08:55:30;;;;;;;0.85;0.20;;;10.40;99.90;;;;;;4967478;28;20452;-74
2023/04/01 08:58:05;;;;;;;0.93;0.22;;;10.40;99.90;;;;;;4972606;28;20038;-74
2023/04/01 09:01:08;;;;;;;0.20;0.20;;;10.40;99.90;;;;;;4973160;28;20042;-74
2023/04/01 09:03:52;;;;;;;0.52;0.28;;;10.40;99.90;;;;;;4987197;28;20038;-74
2023/04/01 09:06:24;;;;;;;0.77;0.30;;;10.40;99.90;;;;;;4969431;28;20082;-74
2023/04/01 09:09:08;;;;;;;0.32;0.25;;;10.40;99.90;;;;;;4970112;28;20038;-74
2023/04/01 09:12:11;;;;;;;0.90;0.30;;;10.40;99.90;;;;;;4976255;28;20026;-75
2023/04/01 09:15:07;;;;;;;0.32;0.20;;;10.40;99.90;;;;;;4973162;28;20081;-75
2023/04/01 09:17:41;;;;;;;0.55;0.20;;;10.30;99.90;;;;;;4974431;28;20026;-75
2023/04/01 09:20:45;;;;;;;2.45;0.40;;;10.40;99.90;;;;;;4972612;28;20034;-75
2023/04/01 09:23:37;;;;;;;0.50;0.33;;;10.30;99.90;;;;;;4974867;28;20034;-75
2023/04/01 09:26:28;;;;;;;2.30;0.55;;;10.30;99.90;;;;;;4975874;28;20443;-75
2023/04/01 09:29:19;;;;;;;1.67;0.30;;;10.30;99.90;;;;;;4985054;28;20063;-75
2023/04/01 09:32:22;;;;;;;1.30;0.20;;;10.20;99.90;;;;;;4970634;28;20468;-75
2023/04/01 09:35:12;;;;;;;0.50;0.20;;;10.20;99.90;;;;;;4988973;28;20391;-75
2023/04/01 09:37:44;;;;;;;0.80;0.30;;;10.30;99.90;;;;;;4970375;28;20129;-75
2023/04/01 09:40:18;;;;;;;1.25;0.30;;;10.30;99.90;;;;;;4967694;28;20476;-75
2023/04/01 09:42:49;;;;;;;;;;;10.40;99.90;;;;;;4967270;28;20019;-74
2023/04/01 09:45:55;;;;;;;0.88;0.30;;;10.40;99.90;;;;;;4969394;28;19917;-75
2023/04/01 09:48:42;;;;;;;0.30;0.20;;;10.40;99.90;;;;;;4969570;28;20038;-73
2023/04/01 09:52:06;;;;;;;0.82;0.30;;;10.30;99.90;;;;;;4983109;28;20027;-75
2023/04/01 09:54:53;;;;;;;1.30;0.30;;;10.20;99.90;;;;;;4936816;28;20045;-74
2023/04/01 09:57:52;;;;;;;0.70;0.25;;;10.20;99.90;;;;;;4972141;28;20053;-74
2023/04/01 10:00:45;;;;;;;1.05;0.40;;;10.20;99.90;;;;;;4969756;28;20038;-74
2023/04/01 10:03:35;;;;;;;1.05;0.50;;;10.20;99.90;;;;;;4971171;28;20081;-75
2023/04/01 10:09:41;;;;;;;0.40;0.30;;;10.40;99.90;;;;;;4969511;28;20170;-73
2023/04/01 10:12:51;;;;;;;0.63;0.30;;;10.40;99.90;;;;;;4971578;28;20050;-72
2023/04/01 10:15:29;;;;;;;1.42;0.40;;;10.50;99.90;;;;;;4974300;28;20432;-73
2023/04/01 10:18:30;;;;;;;0.55;0.35;;;10.50;99.90;;;;;;4970515;28;20045;-73
2023/04/01 10:21:40;;;;;;;1.25;0.30;;;10.50;99.90;;;;;;4971061;28;21156;-73
2023/04/01 10:24:52;;;;;;;0.38;0.28;;;10.30;99.90;;;;;;4969616;28;20031;-72
2023/04/01 10:27:43;;;;;;;1.38;0.20;;;10.20;99.90;;;;;;4976961;28;20451;-72
2023/04/01 10:30:33;;;;;;;0.65;0.35;;;10.10;99.90;;;;;;4972603;28;20106;-73
2023/04/01 10:33:14;;;;;;;1.38;0.40;;;10.10;99.90;;;;;;4971991;28;20077;-72
2023/04/01 10:35:58;;;;;;;3.30;0.50;;;10.10;99.90;;;;;;4972946;28;20023;-72
2023/04/01 10:38:57;;;;;;;1.55;0.30;;;10.10;99.90;;;;;;4971141;28;20448;-72
2023/04/01 10:41:37;;;;;;;1.77;0.30;;;10.00;99.90;;;;;;4968060;28;20058;-72
2023/04/01 10:44:24;;;;;;;0.47;0.22;;;10.00;99.90;;;;;;4971362;28;20026;-72
2023/04/01 10:47:27;;;;;;;3.78;0.40;;;10.00;99.90;;;;;;4968486;28;20159;-72
2023/04/01 10:50:11;;;;;;;3.75;0.65;;;10.10;99.90;;;;;;4969887;28;20063;-71
2023/04/01 10:53:14;;;;;;;0.90;0.28;;;10.20;99.90;;;;;;4964619;28;20028;-73
2023/04/01 10:56:11;;;;;;;1.10;0.52;;;10.20;99.90;;;;;;4968403;28;20114;-74
2023/04/01 10:58:48;;;;;;;0.85;0.30;;;10.30;99.90;;;;;;4964129;28;20058;-72
2023/04/01 11:01:47;;;;;;;1.15;0.45;;;10.40;99.90;;;;;;4970663;28;20093;-73
2023/04/01 11:04:51;;;;;;;2.45;0.30;;;10.40;99.90;;;;;;4984712;28;20037;-73
2023/04/01 11:07:49;;;;;;;1.23;0.40;;;10.40;99.90;;;;;;4970504;28;20026;-73
2023/04/01 11:10:39;;;;;;;1.45;0.40;;;10.50;99.90;;;;;;4967998;28;20037;-73
2023/04/01 11:13:46;;;;;;;2.05;0.28;;;10.60;99.90;;;;;;4974082;28;20403;-72
2023/04/01 11:16:17;;;;;;;1.75;0.60;;;10.60;99.90;;;;;;4970776;28;20145;-71
2023/04/01 11:19:13;;;;;;;0.80;0.30;;;10.60;99.90;;;;;;4970125;28;20109;-72
2023/04/01 11:21:42;;;;;;;0.70;0.40;;;10.60;99.90;;;;;;4969297;28;20113;-72
2023/04/01 11:24:45;;;;;;;1.90;0.50;;;10.60;99.90;;;;;;4970611;28;20035;-73
2023/04/01 11:28:01;;;;;;;1.95;0.60;;;10.70;99.90;;;;;;4969734;28;20019;-73
2023/04/01 11:30:58;;;;;;;0.82;0.40;;;10.70;99.90;;;;;;4950322;28;20484;-73
2023/04/01 11:33:58;;;;;;;1.55;0.70;;;10.80;99.90;;;;;;4971809;28;20031;-71
2023/04/01 11:36:42;;;;;;;1.60;0.60;;;10.80;99.90;;;;;;4962742;28;20035;-73
2023/04/01 11:39:23;;;;;;;0.90;0.40;;;10.80;99.90;;;;;;4972548;28;20030;-73
2023/04/01 11:42:00;;;;;;;0.82;0.40;;;10.80;99.90;;;;;;4967525;28;20031;-73
2023/04/01 11:44:28;;;;;;;1.60;0.85;;;10.70;99.90;;;;;;4975181;28;20027;-73
2023/04/01 11:47:41;;;;;;;1.80;0.40;;;10.60;99.90;;;;;;4971088;28;20073;-74
2023/04/01 11:50:34;;;;;;;0.68;0.40;;;10.70;99.90;;;;;;4970617;28;20038;-74
2023/04/01 11:53:15;;;;;;;1.70;0.60;;;10.70;99.90;;;;;;4965197;28;20027;-73
2023/04/01 11:56:21;;;;;;;1.48;0.82;;;10.80;99.90;;;;;;4970412;28;20031;-72
2023/04/01 11:59:13;;;;;;;2.47;0.70;;;11.00;99.90;;;;;;4969781;28;20054;-72
2023/04/01 12:02:36;;;;;;;0.55;0.40;;;11.10;99.90;;;;;;4971823;28;20057;-73
2023/04/01 12:05:36;;;;;;;0.93;0.43;;;11.10;99.90;;;;;;4904825;28;20260;-73
2023/04/01 12:08:16;;;;;;;0.60;0.40;;;11.20;99.90;;;;;;4972423;28;20039;-73
2023/04/01 12:11:22;;;;;;;0.70;0.30;;;11.20;99.90;;;;;;4970203;28;20033;-74
2023/04/01 12:14:14;;;;;;;0.93;0.50;;;11.30;99.90;;;;;;4958064;28;20038;-73
2023/04/01 12:17:08;;;;;;;1.95;0.60;;;11.30;99.90;;;;;;4969822;28;20028;-72
2023/04/01 12:19:53;;;;;;;1.00;0.45;;;11.40;99.90;;;;;;4963915;28;20043;-73
2023/04/01 12:22:45;;;;;;;1.38;0.73;;;11.40;99.90;;;;;;4987498;28;20062;-73
2023/04/01 12:25:41;;;;;;;0.52;0.30;;;11.40;99.90;;;;;;4970309;28;20045;-73
2023/04/01 12:28:45;;;;;;;0.70;0.50;;;11.40;99.90;;;;;;4970256;28;20456;-74
2023/04/01 12:31:30;;;;;;;0.75;0.50;;;11.40;99.90;;;;;;4966448;28;20022;-73
2023/04/01 12:34:33;;;;;;;1.00;0.32;;;11.40;99.90;;;;;;4969823;28;20039;-71
2023/04/01 12:37:35;;;;;;;0.82;0.25;;;11.40;99.90;;;;;;4967279;28;20404;-73
2023/04/01 12:40:17;;;;;;;1.50;0.40;;;11.40;99.90;;;;;;4972731;28;20479;-72
2023/04/01 12:43:26;;;;;;;2.22;0.45;;;11.40;99.90;;;;;;4971375;28;20037;-73
2023/04/01 12:46:32;;;;;;;0.82;0.40;;;11.40;99.90;;;;;;4978682;28;20041;-73
2023/04/01 12:49:27;;;;;;;0.80;0.30;;;11.40;99.90;;;;;;4971162;28;20054;-73
2023/04/01 12:52:05;;;;;;;0.70;0.30;;;11.30;99.90;;;;;;4971877;28;20471;-73
2023/04/01 12:54:55;;;;;;;0.30;0.22;;;11.40;99.90;;;;;;4971071;28;20129;-73
2023/04/01 12:57:39;;;;;;;1.33;0.50;;;11.40;99.90;;;;;;4968333;28;20034;-74
2023/04/01 13:00:36;;;;;;;1.58;0.40;;;11.50;99.90;;;;;;4982204;28;20027;-73
2023/04/01 13:03:27;;;;;;;0.60;0.40;;;11.50;99.90;;;;;;4971017;28;20535;-71
2023/04/01 13:06:15;;;;;;;0.65;0.30;;;11.70;99.90;;;;;;4973079;28;20023;-72
2023/04/01 13:09:06;;;;;;;0.68;0.35;;;11.70;99.90;;;;;;4985700;28;20069;-74
2023/04/01 13:11:37;;;;;;;1.70;0.45;;;11.70;99.90;;;;;;4974470;28;20102;-73
2023/04/01 13:14:42;;;;;;;1.08;0.38;;;11.70;99.90;;;;;;4967459;28;20030;-73
2023/04/01 13:17:13;;;;;;;;;;;11.70;99.90;;;;;;4972260;28;20019;-72
2023/04/01 13:20:23;;;;;;;1.38;0.38;;;11.80;99.90;;;;;;4968505;28;19918;-74
2023/04/01 13:23:16;;;;;;;0.50;0.20;;;11.80;99.90;;;;;;4968454;28;20066;-73
2023/04/01 13:26:02;;;;;;;1.60;0.30;;;11.80;99.90;;;;;;4971522;28;20118;-73
2023/04/01 13:28:42;;;;;;;0.47;0.20;;;11.80;99.90;;;;;;4969422;28;20041;-72
2023/04/01 13:31:46;;;;;;;2.00;0.30;;;11.90;99.90;;;;;;4971524;28;20042;-73
2023/04/01 13:34:47;;;;;;;0.98;0.40;;;11.90;99.90;;;;;;4981128;28;20081;-73
2023/04/01 13:37:53;;;;;;;0.17;0.13;;;12.00;99.90;;;;;;4969119;28;20027;-72
2023/04/01 13:40:28;;;;;;;1.17;0.40;;;12.00;99.90;;;;;;4968913;28;20041;-73
2023/04/01 13:43:12;;;;;;;0.80;0.30;;;12.00;99.90;;;;;;4966965;28;20031;-73
2023/04/01 13:45:48;;;;;;;0.55;0.40;;;12.00;99.90;;;;;;4972216;28;20054;-73
2023/04/01 13:48:48;;;;;;;0.55;0.20;;;12.00;99.90;;;;;;4969378;28;20018;-73
2023/04/01 13:51:41;;;;;;;0.25;0.15;;;12.00;99.90;;;;;;4973714;28;20101;-73
2023/04/01 13:54:35;;;;;;;0.98;0.40;;;12.00;99.90;;;;;;4969943;28;20030;-73
2023/04/01 13:57:17;;;;;;;1.73;0.20;;;12.10;99.90;;;;;;4971648;28;20029;-72
2023/04/01 13:59:52;;;;;;;0.60;0.40;;;12.00;99.90;;;;;;4967569;28;20031;-73
2023/04/01 14:02:46;;;;;;;1.17;0.40;;;12.00;99.90;;;;;;4984783;28;20121;-72
2023/04/01 14:05:25;;;;;;;2.95;0.30;;;12.00;99.90;;;;;;4974408;28;20038;-73